createdAt,value
2019-03-17T00:00:07.636Z,59.50
2019-03-17T00:00:38.810Z,59.60
2019-03-17T00:01:12.217Z,59.60
2019-03-17T00:01:42.914Z,59.60
2019-03-17T00:02:14.080Z,59.60
2019-03-17T00:02:45.258Z,59.60
2019-03-17T00:03:16.940Z,59.60
2019-03-17T00:03:48.465Z,59.60
2019-03-17T00:04:30.981Z,59.60
2019-03-17T00:04:52.559Z,59.60
2019-03-17T00:05:23.729Z,59.60
2019-03-17T00:05:54.978Z,59.70
2019-03-17T00:06:26.189Z,59.60
2019-03-17T00:06:57.365Z,59.60
2019-03-17T00:07:28.541Z,59.60
2019-03-17T00:07:59.757Z,59.60
2019-03-17T00:08:30.996Z,59.60
2019-03-17T00:09:02.326Z,59.60
2019-03-17T00:09:34.000Z,59.60
2019-03-17T00:10:05.268Z,59.60
2019-03-17T00:10:36.482Z,59.60
2019-03-17T00:11:07.674Z,59.60
2019-03-17T00:11:38.850Z,59.60
2019-03-17T00:12:10.343Z,59.60
2019-03-17T00:12:41.892Z,59.60
2019-03-17T00:13:13.072Z,59.60
2019-03-17T00:13:44.544Z,59.50
2019-03-17T00:14:15.746Z,59.50
2019-03-17T00:14:46.931Z,59.50
2019-03-17T00:15:18.246Z,59.60
2019-03-17T00:15:49.439Z,59.60
2019-03-17T00:16:20.615Z,59.60
2019-03-17T00:16:51.789Z,59.60
2019-03-17T00:17:25.134Z,59.60
2019-03-17T00:17:56.397Z,59.60
2019-03-17T00:18:27.543Z,59.60
2019-03-17T00:18:58.719Z,59.60
2019-03-17T00:19:29.900Z,59.60
2019-03-17T00:20:01.405Z,59.60
2019-03-17T00:20:32.608Z,59.60
2019-03-17T00:21:03.785Z,59.60
2019-03-17T00:21:35.305Z,59.60
2019-03-17T00:22:06.504Z,59.60
2019-03-17T00:22:37.668Z,59.50
2019-03-17T00:23:08.849Z,59.60
2019-03-17T00:23:40.030Z,59.50
2019-03-17T00:24:11.205Z,59.60
2019-03-17T00:24:42.387Z,59.50
2019-03-17T00:25:13.573Z,59.60
2019-03-17T00:25:44.769Z,59.50
2019-03-17T00:26:15.945Z,59.60
2019-03-17T00:26:47.141Z,59.50
2019-03-17T00:27:19.366Z,59.60
2019-03-17T00:27:50.621Z,59.60
2019-03-17T00:28:21.802Z,59.60
2019-03-17T00:28:52.985Z,59.60
2019-03-17T00:29:24.479Z,59.60
2019-03-17T00:29:56.059Z,59.60
2019-03-17T00:30:27.582Z,59.60
2019-03-17T00:30:58.773Z,59.60
2019-03-17T00:31:30.235Z,59.70
2019-03-17T00:32:01.796Z,59.70
2019-03-17T00:32:33.261Z,59.70
2019-03-17T00:33:04.426Z,59.70
2019-03-17T00:33:36.649Z,59.70
2019-03-17T00:34:07.975Z,59.70
2019-03-17T00:34:44.076Z,59.30
2019-03-17T00:35:12.131Z,59.60
2019-03-17T00:35:43.419Z,59.60
2019-03-17T00:36:14.650Z,59.60
2019-03-17T00:36:45.862Z,59.60
2019-03-17T00:37:17.048Z,59.20
2019-03-17T00:37:48.247Z,59.60
2019-03-17T00:38:19.412Z,59.70
2019-03-17T00:38:50.609Z,59.60
2019-03-17T00:39:21.787Z,59.60
2019-03-17T00:39:53.325Z,59.60
2019-03-17T00:40:24.506Z,59.60
2019-03-17T00:40:55.694Z,59.60
2019-03-17T00:41:27.352Z,59.60
2019-03-17T00:41:58.537Z,59.60
2019-03-17T00:42:29.713Z,59.60
2019-03-17T00:43:01.295Z,59.60
2019-03-17T00:43:32.780Z,59.60
2019-03-17T00:44:03.953Z,59.60
2019-03-17T00:44:35.133Z,59.60
2019-03-17T00:45:06.673Z,59.60
2019-03-17T00:45:37.854Z,59.60
2019-03-17T00:46:09.337Z,59.60
2019-03-17T00:46:40.925Z,59.60
2019-03-17T00:47:12.105Z,59.60
2019-03-17T00:47:43.322Z,59.60
2019-03-17T00:48:14.492Z,59.70
2019-03-17T00:48:45.665Z,59.60
2019-03-17T00:49:17.189Z,59.60
2019-03-17T00:49:48.509Z,59.60
2019-03-17T00:50:19.710Z,59.60
2019-03-17T00:50:50.892Z,59.60
2019-03-17T00:51:22.074Z,59.60
2019-03-17T00:51:53.616Z,59.60
2019-03-17T00:52:24.783Z,59.70
2019-03-17T00:52:56.231Z,59.60
2019-03-17T00:53:27.415Z,59.60
2019-03-17T00:53:58.963Z,59.60
2019-03-17T00:54:30.142Z,59.60
2019-03-17T00:55:01.561Z,59.70
2019-03-17T00:55:32.798Z,59.60
2019-03-17T00:56:04.015Z,59.60
2019-03-17T00:56:35.529Z,59.60
2019-03-17T00:57:06.697Z,59.70
2019-03-17T00:57:37.876Z,59.60
2019-03-17T00:58:09.051Z,59.60
2019-03-17T00:58:40.259Z,59.60
2019-03-17T00:59:11.440Z,59.60
2019-03-17T00:59:42.618Z,59.60
2019-03-17T01:00:13.816Z,59.50
2019-03-17T01:00:44.991Z,59.60
2019-03-17T01:01:16.177Z,59.90
2019-03-17T01:01:47.347Z,59.50
2019-03-17T01:02:18.559Z,59.60
2019-03-17T01:02:49.760Z,59.50
2019-03-17T01:03:20.939Z,59.50
2019-03-17T01:03:52.116Z,59.40
2019-03-17T01:04:23.293Z,59.40
2019-03-17T01:04:56.430Z,59.50
2019-03-17T01:05:27.704Z,59.40
2019-03-17T01:05:58.884Z,59.40
2019-03-17T01:06:30.068Z,59.40
2019-03-17T01:07:01.317Z,59.40
2019-03-17T01:07:32.497Z,59.40
2019-03-17T01:08:03.841Z,59.40
2019-03-17T01:08:35.401Z,59.70
2019-03-17T01:09:06.582Z,59.40
2019-03-17T01:09:37.753Z,59.40
2019-03-17T01:10:08.934Z,59.40
2019-03-17T01:10:40.129Z,59.50
2019-03-17T01:11:13.222Z,59.40
2019-03-17T01:11:44.453Z,59.50
2019-03-17T01:12:15.979Z,59.50
2019-03-17T01:12:47.234Z,59.50
2019-03-17T01:13:18.414Z,59.50
2019-03-17T01:13:49.695Z,59.50
2019-03-17T01:14:20.879Z,59.70
2019-03-17T01:14:52.069Z,59.50
2019-03-17T01:15:23.255Z,60.30
2019-03-17T01:15:54.464Z,59.50
2019-03-17T01:16:25.690Z,59.60
2019-03-17T01:16:56.862Z,59.50
2019-03-17T01:17:28.120Z,59.60
2019-03-17T01:17:59.291Z,59.60
2019-03-17T01:18:30.462Z,59.60
2019-03-17T01:19:02.000Z,59.60
2019-03-17T01:19:33.172Z,59.60
2019-03-17T01:20:04.423Z,59.60
2019-03-17T01:20:35.896Z,59.60
2019-03-17T01:21:07.431Z,59.60
2019-03-17T01:21:38.601Z,59.60
2019-03-17T01:22:10.108Z,59.60
2019-03-17T01:22:41.644Z,59.60
2019-03-17T01:23:12.824Z,59.60
2019-03-17T01:23:44.316Z,59.60
2019-03-17T01:24:15.495Z,59.60
2019-03-17T01:24:46.669Z,59.60
2019-03-17T01:25:17.860Z,59.60
2019-03-17T01:25:49.035Z,59.60
2019-03-17T01:26:20.214Z,60.30
2019-03-17T01:26:51.392Z,59.60
2019-03-17T01:27:22.564Z,59.60
2019-03-17T01:27:53.747Z,59.70
2019-03-17T01:28:24.928Z,59.60
2019-03-17T01:28:56.113Z,59.60
2019-03-17T01:29:27.665Z,59.60
2019-03-17T01:29:58.848Z,59.60
2019-03-17T01:30:30.023Z,60.30
2019-03-17T01:31:01.212Z,59.60
2019-03-17T01:31:32.697Z,59.60
2019-03-17T01:32:03.873Z,59.60
2019-03-17T01:32:35.077Z,59.60
2019-03-17T01:33:06.258Z,59.60
2019-03-17T01:33:37.430Z,59.60
2019-03-17T01:34:08.618Z,59.60
2019-03-17T01:34:39.830Z,59.60
2019-03-17T01:35:11.074Z,59.60
2019-03-17T01:35:42.298Z,59.60
2019-03-17T01:36:13.510Z,59.60
2019-03-17T01:36:44.686Z,59.60
2019-03-17T01:37:15.858Z,59.50
2019-03-17T01:37:47.038Z,59.60
2019-03-17T01:38:18.212Z,59.50
2019-03-17T01:38:49.400Z,59.50
2019-03-17T01:39:20.883Z,59.50
2019-03-17T01:39:52.051Z,59.40
2019-03-17T01:40:23.250Z,59.40
2019-03-17T01:40:54.431Z,59.40
2019-03-17T01:41:25.904Z,59.40
2019-03-17T01:41:57.099Z,59.50
2019-03-17T01:42:28.275Z,59.50
2019-03-17T01:42:59.451Z,59.40
2019-03-17T01:43:30.627Z,59.40
2019-03-17T01:44:01.800Z,59.40
2019-03-17T01:44:32.984Z,59.40
2019-03-17T01:45:04.163Z,59.40
2019-03-17T01:45:35.359Z,59.50
2019-03-17T01:46:06.889Z,59.40
2019-03-17T01:46:38.123Z,60.00
2019-03-17T01:47:09.665Z,59.30
2019-03-17T01:47:40.845Z,59.40
2019-03-17T01:48:12.045Z,59.40
2019-03-17T01:48:43.252Z,59.30
2019-03-17T01:49:14.481Z,59.40
2019-03-17T01:49:45.657Z,59.40
2019-03-17T01:50:16.859Z,59.50
2019-03-17T01:50:48.043Z,59.40
2019-03-17T01:51:19.236Z,59.40
2019-03-17T01:51:50.421Z,59.40
2019-03-17T01:52:21.605Z,59.50
2019-03-17T01:52:52.779Z,59.50
2019-03-17T01:53:23.954Z,59.40
2019-03-17T01:53:55.129Z,59.50
2019-03-17T01:54:26.338Z,59.50
2019-03-17T01:54:57.539Z,59.50
2019-03-17T01:55:28.995Z,59.50
2019-03-17T01:56:00.207Z,59.40
2019-03-17T01:56:31.748Z,59.40
2019-03-17T01:57:02.927Z,59.40
2019-03-17T01:57:34.126Z,59.40
2019-03-17T01:58:05.310Z,60.00
2019-03-17T01:58:36.495Z,59.40
2019-03-17T01:59:07.675Z,59.00
2019-03-17T01:59:38.852Z,60.00
2019-03-17T02:00:10.047Z,60.00
2019-03-17T02:00:41.229Z,59.40
2019-03-17T02:01:12.408Z,59.50
2019-03-17T02:01:43.661Z,59.40
2019-03-17T02:02:14.847Z,59.50
2019-03-17T02:02:46.046Z,59.40
2019-03-17T02:03:17.269Z,59.40
2019-03-17T02:03:48.794Z,59.60
2019-03-17T02:04:20.334Z,59.40
2019-03-17T02:04:51.515Z,59.40
2019-03-17T02:05:22.797Z,59.40
2019-03-17T02:05:53.983Z,59.40
2019-03-17T02:06:25.203Z,59.40
2019-03-17T02:06:56.661Z,59.40
2019-03-17T02:07:27.849Z,59.40
2019-03-17T02:07:59.470Z,59.50
2019-03-17T02:08:30.652Z,59.50
2019-03-17T02:09:01.833Z,59.40
2019-03-17T02:09:33.020Z,59.50
2019-03-17T02:10:04.193Z,60.10
2019-03-17T02:10:35.373Z,59.50
2019-03-17T02:11:06.900Z,59.50
2019-03-17T02:11:38.406Z,59.50
2019-03-17T02:12:10.045Z,59.50
2019-03-17T02:12:41.590Z,59.50
2019-03-17T02:13:12.766Z,59.50
2019-03-17T02:13:44.070Z,59.50
2019-03-17T02:14:15.594Z,60.20
2019-03-17T02:14:46.773Z,59.50
2019-03-17T02:15:17.950Z,59.50
2019-03-17T02:15:49.159Z,59.50
2019-03-17T02:16:20.727Z,59.50
2019-03-17T02:16:51.974Z,59.50
2019-03-17T02:17:23.154Z,59.40
2019-03-17T02:17:54.349Z,59.50
2019-03-17T02:18:25.542Z,59.50
2019-03-17T02:18:57.100Z,59.50
2019-03-17T02:19:28.375Z,59.60
2019-03-17T02:19:59.602Z,59.60
2019-03-17T02:20:30.787Z,59.50
2019-03-17T02:21:01.955Z,59.50
2019-03-17T02:21:33.130Z,59.50
2019-03-17T02:22:04.303Z,59.50
2019-03-17T02:22:35.483Z,59.50
2019-03-17T02:23:06.679Z,59.50
2019-03-17T02:23:37.864Z,59.50
2019-03-17T02:24:09.309Z,59.40
2019-03-17T02:24:40.487Z,59.50
2019-03-17T02:25:11.695Z,59.30
2019-03-17T02:25:42.876Z,59.40
2019-03-17T02:26:14.345Z,59.40
2019-03-17T02:26:45.884Z,60.00
2019-03-17T02:27:17.057Z,59.30
2019-03-17T02:27:48.243Z,59.30
2019-03-17T02:28:19.416Z,59.30
2019-03-17T02:28:50.599Z,59.90
2019-03-17T02:29:21.772Z,59.90
2019-03-17T02:29:53.276Z,59.40
2019-03-17T02:30:24.492Z,59.30
2019-03-17T02:30:55.674Z,59.30
2019-03-17T02:31:26.852Z,59.30
2019-03-17T02:31:58.101Z,59.30
2019-03-17T02:32:29.286Z,59.30
2019-03-17T02:33:00.480Z,59.30
2019-03-17T02:33:31.735Z,59.30
2019-03-17T02:34:02.972Z,59.30
2019-03-17T02:34:34.174Z,59.30
2019-03-17T02:35:05.701Z,59.30
2019-03-17T02:35:39.419Z,60.00
2019-03-17T02:36:10.144Z,59.30
2019-03-17T02:36:41.318Z,59.40
2019-03-17T02:37:12.786Z,59.40
2019-03-17T02:37:44.087Z,60.10
2019-03-17T02:38:15.267Z,59.40
2019-03-17T02:38:46.506Z,59.40
2019-03-17T02:39:17.743Z,59.40
2019-03-17T02:39:49.354Z,60.10
2019-03-17T02:40:20.583Z,59.40
2019-03-17T02:40:51.806Z,59.40
2019-03-17T02:41:22.979Z,59.40
2019-03-17T02:41:54.163Z,59.50
2019-03-17T02:42:25.339Z,59.40
2019-03-17T02:42:56.507Z,59.50
2019-03-17T02:43:27.705Z,59.50
2019-03-17T02:43:58.932Z,59.50
2019-03-17T02:44:30.440Z,59.50
2019-03-17T02:45:01.625Z,59.50
2019-03-17T02:45:32.796Z,59.50
2019-03-17T02:46:03.984Z,59.50
2019-03-17T02:46:35.153Z,59.50
2019-03-17T02:47:06.346Z,59.50
2019-03-17T02:47:37.574Z,59.50
2019-03-17T02:48:08.752Z,59.50
2019-03-17T02:48:40.009Z,59.50
2019-03-17T02:49:11.201Z,60.10
2019-03-17T02:49:42.413Z,59.40
2019-03-17T02:50:13.712Z,59.40
2019-03-17T02:50:44.889Z,59.40
2019-03-17T02:51:16.191Z,59.40
2019-03-17T02:51:47.725Z,59.40
2019-03-17T02:52:18.910Z,59.40
2019-03-17T02:52:50.085Z,59.40
2019-03-17T02:53:21.296Z,59.50
2019-03-17T02:53:52.478Z,59.40
2019-03-17T02:54:23.657Z,59.40
2019-03-17T02:54:54.845Z,59.40
2019-03-17T02:55:26.021Z,59.30
2019-03-17T02:55:57.197Z,59.40
2019-03-17T02:56:28.430Z,59.30
2019-03-17T02:56:59.610Z,59.40
2019-03-17T02:57:30.795Z,59.30
2019-03-17T02:58:02.001Z,59.30
2019-03-17T02:58:33.180Z,59.30
2019-03-17T02:59:04.387Z,59.30
2019-03-17T02:59:35.623Z,59.40
2019-03-17T03:00:06.788Z,60.00
2019-03-17T03:00:37.980Z,59.30
2019-03-17T03:01:09.162Z,59.40
2019-03-17T03:01:40.380Z,59.30
2019-03-17T03:02:11.571Z,59.30
2019-03-17T03:02:43.088Z,59.40
2019-03-17T03:03:14.271Z,59.30
2019-03-17T03:03:45.440Z,59.30
2019-03-17T03:04:16.617Z,59.30
2019-03-17T03:04:47.799Z,59.30
2019-03-17T03:05:18.991Z,59.30
2019-03-17T03:05:55.368Z,59.30
2019-03-17T03:06:23.113Z,59.90
2019-03-17T03:06:54.291Z,59.30
2019-03-17T03:07:25.588Z,59.30
2019-03-17T03:07:57.149Z,59.20
2019-03-17T03:08:28.420Z,59.30
2019-03-17T03:08:59.606Z,59.30
2019-03-17T03:09:30.797Z,59.30
2019-03-17T03:10:02.032Z,59.30
2019-03-17T03:10:33.249Z,59.30
2019-03-17T03:11:04.469Z,59.30
2019-03-17T03:11:35.681Z,59.30
2019-03-17T03:12:06.874Z,59.30
2019-03-17T03:12:38.064Z,59.30
2019-03-17T03:13:09.563Z,59.40
2019-03-17T03:13:40.737Z,59.30
2019-03-17T03:14:11.916Z,59.30
2019-03-17T03:14:43.090Z,59.30
2019-03-17T03:15:14.447Z,59.30
2019-03-17T03:15:45.634Z,59.30
2019-03-17T03:16:16.814Z,59.30
2019-03-17T03:16:48.386Z,59.40
2019-03-17T03:17:19.618Z,59.40
2019-03-17T03:17:50.815Z,59.40
2019-03-17T03:18:21.986Z,59.40
2019-03-17T03:18:53.165Z,59.40
2019-03-17T03:19:24.350Z,59.40
2019-03-17T03:19:55.536Z,59.40
2019-03-17T03:20:27.168Z,59.40
2019-03-17T03:20:58.411Z,59.40
2019-03-17T03:21:29.996Z,59.40
2019-03-17T03:22:01.203Z,59.40
2019-03-17T03:22:32.390Z,59.40
2019-03-17T03:23:03.572Z,59.40
2019-03-17T03:23:34.759Z,59.30
2019-03-17T03:24:05.997Z,59.40
2019-03-17T03:24:37.479Z,59.30
2019-03-17T03:25:08.696Z,59.30
2019-03-17T03:25:39.859Z,59.30
2019-03-17T03:26:11.034Z,59.40
2019-03-17T03:26:42.512Z,59.30
2019-03-17T03:27:13.800Z,59.30
2019-03-17T03:27:45.044Z,59.30
2019-03-17T03:28:16.517Z,59.30
2019-03-17T03:28:47.696Z,59.30
2019-03-17T03:29:18.874Z,59.30
2019-03-17T03:29:50.119Z,59.30
2019-03-17T03:30:21.407Z,59.40
2019-03-17T03:30:52.708Z,59.30
2019-03-17T03:31:23.945Z,59.30
2019-03-17T03:31:55.121Z,59.40
2019-03-17T03:32:26.592Z,59.30
2019-03-17T03:32:57.790Z,59.40
2019-03-17T03:33:29.010Z,59.30
2019-03-17T03:34:00.185Z,59.30
2019-03-17T03:34:31.602Z,59.30
2019-03-17T03:35:02.862Z,59.30
2019-03-17T03:35:34.093Z,59.30
2019-03-17T03:36:11.372Z,59.30
2019-03-17T03:36:38.552Z,59.30
2019-03-17T03:37:10.033Z,59.30
2019-03-17T03:37:41.215Z,59.30
2019-03-17T03:38:12.389Z,59.30
2019-03-17T03:38:43.582Z,59.30
2019-03-17T03:39:14.833Z,59.30
2019-03-17T03:39:46.015Z,59.30
2019-03-17T03:40:17.213Z,59.30
2019-03-17T03:40:48.387Z,59.30
2019-03-17T03:41:19.586Z,59.30
2019-03-17T03:41:50.822Z,59.20
2019-03-17T03:42:22.351Z,59.20
2019-03-17T03:42:53.927Z,59.20
2019-03-17T03:43:25.127Z,59.20
2019-03-17T03:43:56.309Z,59.20
2019-03-17T03:44:27.796Z,59.20
2019-03-17T03:44:59.015Z,59.20
2019-03-17T03:45:30.215Z,59.10
2019-03-17T03:46:01.407Z,59.20
2019-03-17T03:46:32.579Z,59.10
2019-03-17T03:47:03.756Z,59.10
2019-03-17T03:47:34.955Z,59.10
2019-03-17T03:48:06.332Z,59.10
2019-03-17T03:48:37.503Z,59.10
2019-03-17T03:49:08.700Z,59.10
2019-03-17T03:49:39.901Z,59.10
2019-03-17T03:50:11.073Z,59.00
2019-03-17T03:50:42.294Z,59.10
2019-03-17T03:51:13.645Z,59.00
2019-03-17T03:51:44.813Z,59.00
2019-03-17T03:52:15.993Z,59.00
2019-03-17T03:52:47.512Z,59.70
2019-03-17T03:53:18.726Z,59.00
2019-03-17T03:53:49.971Z,59.00
2019-03-17T03:54:21.214Z,59.00
2019-03-17T03:54:52.425Z,59.10
2019-03-17T03:55:23.606Z,59.10
2019-03-17T03:55:55.141Z,59.20
2019-03-17T03:56:26.321Z,59.10
2019-03-17T03:56:57.496Z,59.10
2019-03-17T03:57:28.738Z,59.20
2019-03-17T03:57:59.915Z,59.10
2019-03-17T03:58:31.092Z,59.20
2019-03-17T03:59:02.271Z,59.20
2019-03-17T03:59:33.457Z,59.20
2019-03-17T04:00:04.738Z,59.20
2019-03-17T04:00:35.954Z,59.20
2019-03-17T04:01:07.199Z,59.30
2019-03-17T04:01:38.368Z,59.20
2019-03-17T04:02:09.624Z,59.20
2019-03-17T04:02:40.799Z,59.30
2019-03-17T04:03:11.977Z,59.20
2019-03-17T04:03:43.143Z,59.60
2019-03-17T04:04:14.323Z,59.30
2019-03-17T04:04:45.491Z,59.20
2019-03-17T04:05:16.703Z,59.30
2019-03-17T04:05:47.900Z,59.20
2019-03-17T04:06:26.369Z,59.30
2019-03-17T04:06:51.995Z,59.30
2019-03-17T04:07:23.174Z,59.30
2019-03-17T04:07:54.355Z,59.30
2019-03-17T04:08:25.528Z,59.30
2019-03-17T04:08:56.704Z,59.40
2019-03-17T04:09:27.884Z,59.30
2019-03-17T04:09:59.068Z,59.50
2019-03-17T04:10:30.267Z,59.30
2019-03-17T04:11:01.518Z,59.30
2019-03-17T04:11:32.907Z,59.30
2019-03-17T04:12:04.151Z,59.30
2019-03-17T04:12:35.419Z,59.30
2019-03-17T04:13:07.016Z,59.30
2019-03-17T04:13:38.249Z,59.30
2019-03-17T04:14:09.430Z,59.20
2019-03-17T04:14:40.629Z,59.20
2019-03-17T04:15:11.805Z,59.20
2019-03-17T04:15:43.274Z,59.20
2019-03-17T04:16:14.546Z,59.30
2019-03-17T04:16:45.713Z,59.20
2019-03-17T04:17:16.904Z,59.20
2019-03-17T04:17:48.086Z,59.20
2019-03-17T04:18:19.336Z,59.20
2019-03-17T04:18:50.517Z,59.20
2019-03-17T04:19:21.696Z,59.20
2019-03-17T04:19:52.896Z,59.20
2019-03-17T04:20:24.130Z,59.10
2019-03-17T04:20:55.316Z,59.20
2019-03-17T04:21:26.501Z,59.20
2019-03-17T04:21:57.699Z,59.20
2019-03-17T04:22:28.983Z,59.20
2019-03-17T04:23:00.529Z,59.10
2019-03-17T04:23:31.705Z,59.20
2019-03-17T04:24:02.887Z,59.10
2019-03-17T04:24:34.167Z,59.10
2019-03-17T04:25:05.414Z,59.10
2019-03-17T04:25:36.736Z,59.10
2019-03-17T04:26:07.967Z,59.20
2019-03-17T04:26:39.136Z,59.20
2019-03-17T04:27:10.368Z,59.20
2019-03-17T04:27:41.537Z,59.20
2019-03-17T04:28:12.734Z,59.20
2019-03-17T04:28:44.238Z,59.10
2019-03-17T04:29:15.425Z,59.20
2019-03-17T04:29:46.601Z,59.10
2019-03-17T04:30:17.783Z,59.10
2019-03-17T04:30:48.958Z,59.10
2019-03-17T04:31:20.132Z,59.10
2019-03-17T04:31:51.301Z,59.10
2019-03-17T04:32:22.496Z,59.10
2019-03-17T04:32:53.791Z,59.10
2019-03-17T04:33:25.060Z,59.10
2019-03-17T04:33:56.252Z,59.10
2019-03-17T04:34:27.447Z,59.10
2019-03-17T04:34:58.681Z,59.10
2019-03-17T04:35:29.902Z,59.20
2019-03-17T04:36:01.111Z,59.10
2019-03-17T04:36:40.028Z,59.20
2019-03-17T04:37:05.231Z,59.20
2019-03-17T04:37:36.774Z,59.10
2019-03-17T04:38:07.949Z,59.10
2019-03-17T04:38:39.142Z,59.20
2019-03-17T04:39:10.384Z,59.10
2019-03-17T04:39:41.576Z,59.20
2019-03-17T04:40:12.757Z,59.10
2019-03-17T04:40:43.929Z,59.20
2019-03-17T04:41:15.109Z,59.20
2019-03-17T04:41:46.290Z,59.20
2019-03-17T04:42:17.465Z,59.10
2019-03-17T04:42:48.985Z,59.20
2019-03-17T04:43:20.526Z,59.10
2019-03-17T04:43:51.754Z,59.10
2019-03-17T04:44:23.222Z,59.10
2019-03-17T04:44:54.770Z,59.20
2019-03-17T04:45:26.385Z,59.10
2019-03-17T04:45:57.558Z,59.10
2019-03-17T04:46:28.753Z,59.10
2019-03-17T04:47:00.024Z,59.10
2019-03-17T04:47:31.202Z,59.70
2019-03-17T04:48:02.374Z,59.10
2019-03-17T04:48:33.602Z,59.10
2019-03-17T04:49:04.818Z,59.10
2019-03-17T04:49:36.006Z,59.20
2019-03-17T04:50:07.192Z,59.20
2019-03-17T04:50:38.362Z,59.20
2019-03-17T04:51:09.540Z,59.20
2019-03-17T04:51:40.716Z,59.20
2019-03-17T04:52:12.263Z,59.20
2019-03-17T04:52:43.541Z,59.20
2019-03-17T04:53:14.720Z,59.20
2019-03-17T04:53:45.896Z,59.20
2019-03-17T04:54:17.533Z,59.20
2019-03-17T04:54:48.711Z,59.20
2019-03-17T04:55:19.887Z,59.20
2019-03-17T04:55:51.435Z,59.20
2019-03-17T04:56:22.644Z,59.20
2019-03-17T04:56:53.836Z,59.20
2019-03-17T04:57:25.014Z,59.30
2019-03-17T04:57:56.195Z,59.20
2019-03-17T04:58:27.365Z,59.30
2019-03-17T04:58:58.545Z,59.20
2019-03-17T04:59:29.712Z,59.30
2019-03-17T05:00:01.210Z,59.20
2019-03-17T05:00:32.762Z,59.70
2019-03-17T05:01:03.961Z,59.20
2019-03-17T05:01:35.493Z,59.20
2019-03-17T05:02:06.936Z,59.20
2019-03-17T05:02:38.495Z,59.30
2019-03-17T05:03:10.039Z,59.20
2019-03-17T05:03:41.316Z,59.20
2019-03-17T05:04:12.491Z,59.20
2019-03-17T05:04:43.673Z,59.20
2019-03-17T05:05:14.911Z,59.20
2019-03-17T05:05:46.142Z,59.20
2019-03-17T05:06:17.411Z,59.20
2019-03-17T05:06:52.867Z,59.10
2019-03-17T05:07:21.544Z,59.10
2019-03-17T05:07:52.755Z,59.10
2019-03-17T05:08:24.320Z,59.10
2019-03-17T05:08:55.874Z,59.10
2019-03-17T05:09:27.482Z,59.00
2019-03-17T05:09:58.684Z,59.10
2019-03-17T05:10:30.142Z,59.00
2019-03-17T05:11:01.671Z,59.10
2019-03-17T05:11:33.233Z,59.00
2019-03-17T05:12:04.751Z,59.00
2019-03-17T05:12:35.931Z,59.00
2019-03-17T05:13:07.111Z,59.00
2019-03-17T05:13:38.286Z,59.00
2019-03-17T05:14:09.480Z,59.00
2019-03-17T05:14:40.946Z,59.00
2019-03-17T05:15:12.153Z,59.10
2019-03-17T05:15:43.417Z,59.00
2019-03-17T05:16:14.592Z,59.10
2019-03-17T05:16:46.044Z,59.10
2019-03-17T05:17:17.387Z,59.10
2019-03-17T05:17:48.924Z,59.10
2019-03-17T05:18:20.128Z,59.10
2019-03-17T05:18:51.348Z,59.10
2019-03-17T05:19:22.604Z,59.10
2019-03-17T05:19:54.062Z,59.10
2019-03-17T05:20:25.304Z,59.20
2019-03-17T05:20:56.490Z,59.20
2019-03-17T05:21:27.667Z,59.10
2019-03-17T05:21:58.837Z,59.10
2019-03-17T05:22:30.377Z,59.20
2019-03-17T05:23:01.572Z,59.20
2019-03-17T05:23:33.095Z,59.20
2019-03-17T05:24:04.278Z,59.20
2019-03-17T05:24:35.449Z,59.20
2019-03-17T05:25:06.636Z,59.20
2019-03-17T05:25:37.812Z,59.30
2019-03-17T05:26:09.458Z,59.20
2019-03-17T05:26:40.653Z,59.30
2019-03-17T05:27:11.831Z,59.20
2019-03-17T05:27:43.032Z,59.20
2019-03-17T05:28:14.207Z,59.20
2019-03-17T05:28:45.666Z,59.20
2019-03-17T05:29:16.902Z,59.20
2019-03-17T05:29:48.086Z,59.20
2019-03-17T05:30:19.334Z,59.20
2019-03-17T05:30:50.522Z,59.20
2019-03-17T05:31:21.707Z,59.20
2019-03-17T05:31:52.891Z,59.20
2019-03-17T05:32:24.243Z,59.10
2019-03-17T05:32:55.472Z,59.90
2019-03-17T05:33:26.635Z,59.10
2019-03-17T05:33:57.812Z,59.20
2019-03-17T05:34:28.991Z,59.10
2019-03-17T05:35:00.362Z,59.60
2019-03-17T05:35:31.667Z,59.10
2019-03-17T05:36:02.847Z,59.20
2019-03-17T05:36:34.025Z,59.20
2019-03-17T05:37:06.787Z,59.10
2019-03-17T05:37:38.654Z,59.20
2019-03-17T05:38:09.863Z,59.10
2019-03-17T05:38:41.049Z,59.20
2019-03-17T05:39:12.226Z,59.10
2019-03-17T05:39:43.444Z,59.20
2019-03-17T05:40:14.621Z,59.10
2019-03-17T05:40:45.796Z,59.20
2019-03-17T05:41:16.980Z,59.20
2019-03-17T05:41:48.441Z,59.30
2019-03-17T05:42:19.656Z,59.20
2019-03-17T05:42:51.157Z,59.20
2019-03-17T05:43:22.356Z,59.20
2019-03-17T05:43:53.846Z,59.20
2019-03-17T05:44:25.033Z,59.20
2019-03-17T05:44:56.517Z,59.20
2019-03-17T05:45:27.694Z,59.20
2019-03-17T05:45:58.873Z,59.20
2019-03-17T05:46:30.057Z,59.70
2019-03-17T05:47:01.245Z,59.10
2019-03-17T05:47:32.469Z,59.20
2019-03-17T05:48:03.702Z,59.10
2019-03-17T05:48:34.880Z,59.20
2019-03-17T05:49:06.058Z,59.10
2019-03-17T05:49:37.246Z,59.10
2019-03-17T05:50:08.418Z,59.10
2019-03-17T05:50:39.586Z,59.10
2019-03-17T05:51:10.781Z,59.10
2019-03-17T05:51:41.950Z,59.20
2019-03-17T05:52:13.166Z,59.70
2019-03-17T05:52:44.659Z,59.10
2019-03-17T05:53:15.834Z,59.10
2019-03-17T05:53:47.016Z,59.10
2019-03-17T05:54:18.191Z,59.10
2019-03-17T05:54:49.694Z,59.20
2019-03-17T05:55:20.864Z,59.20
2019-03-17T05:55:52.043Z,59.20
2019-03-17T05:56:23.258Z,59.20
2019-03-17T05:56:54.443Z,59.30
2019-03-17T05:57:25.620Z,59.20
2019-03-17T05:57:56.799Z,59.20
2019-03-17T05:58:27.981Z,59.30
2019-03-17T05:58:59.155Z,59.20
2019-03-17T05:59:30.360Z,59.20
2019-03-17T06:00:01.642Z,59.20
2019-03-17T06:00:32.823Z,59.30
2019-03-17T06:01:04.082Z,59.30
2019-03-17T06:01:35.261Z,59.30
2019-03-17T06:02:06.439Z,59.30
2019-03-17T06:02:38.027Z,59.30
2019-03-17T06:03:09.369Z,59.20
2019-03-17T06:03:40.568Z,59.20
2019-03-17T06:04:11.745Z,59.30
2019-03-17T06:04:43.314Z,59.20
2019-03-17T06:05:14.877Z,58.70
2019-03-17T06:05:46.062Z,59.20
2019-03-17T06:06:17.631Z,59.20
2019-03-17T06:06:48.821Z,59.20
2019-03-17T06:07:20.010Z,59.20
2019-03-17T06:07:51.563Z,59.20
2019-03-17T06:08:22.737Z,59.20
2019-03-17T06:08:53.929Z,59.20
2019-03-17T06:09:25.141Z,59.30
2019-03-17T06:09:56.322Z,59.20
2019-03-17T06:10:27.495Z,59.20
2019-03-17T06:10:58.674Z,59.30
2019-03-17T06:11:29.842Z,59.30
2019-03-17T06:12:01.027Z,59.30
2019-03-17T06:12:32.206Z,59.30
2019-03-17T06:13:03.386Z,59.30
2019-03-17T06:13:34.563Z,59.40
2019-03-17T06:14:05.746Z,59.30
2019-03-17T06:14:37.087Z,59.40
2019-03-17T06:15:08.335Z,59.30
2019-03-17T06:15:39.551Z,59.30
2019-03-17T06:16:10.859Z,59.40
2019-03-17T06:16:42.084Z,59.30
2019-03-17T06:17:13.316Z,59.30
2019-03-17T06:17:44.851Z,59.30
2019-03-17T06:18:16.024Z,59.30
2019-03-17T06:18:47.207Z,59.30
2019-03-17T06:19:18.404Z,59.30
2019-03-17T06:19:49.591Z,59.30
2019-03-17T06:20:20.763Z,58.70
2019-03-17T06:20:52.328Z,59.30
2019-03-17T06:21:23.508Z,59.30
2019-03-17T06:21:54.778Z,59.30
2019-03-17T06:22:26.241Z,59.20
2019-03-17T06:22:57.417Z,59.90
2019-03-17T06:23:28.616Z,59.20
2019-03-17T06:23:59.822Z,59.20
2019-03-17T06:24:31.087Z,59.20
2019-03-17T06:25:02.376Z,59.20
2019-03-17T06:25:33.623Z,59.20
2019-03-17T06:26:04.837Z,59.20
2019-03-17T06:26:36.030Z,59.20
2019-03-17T06:27:07.213Z,59.20
2019-03-17T06:27:38.390Z,59.10
2019-03-17T06:28:09.569Z,59.20
2019-03-17T06:28:40.755Z,59.20
2019-03-17T06:29:11.930Z,59.20
2019-03-17T06:29:43.109Z,59.20
2019-03-17T06:30:14.334Z,59.20
2019-03-17T06:30:45.854Z,59.10
2019-03-17T06:31:17.148Z,59.10
2019-03-17T06:31:48.353Z,59.10
2019-03-17T06:32:19.530Z,59.10
2019-03-17T06:32:50.702Z,59.10
2019-03-17T06:33:21.926Z,59.20
2019-03-17T06:33:53.161Z,59.10
2019-03-17T06:34:24.567Z,59.40
2019-03-17T06:34:55.831Z,59.20
2019-03-17T06:35:27.033Z,59.80
2019-03-17T06:35:58.219Z,59.20
2019-03-17T06:36:29.398Z,59.20
2019-03-17T06:37:00.568Z,59.20
2019-03-17T06:37:32.175Z,59.30
2019-03-17T06:38:03.347Z,59.20
2019-03-17T06:38:34.523Z,59.20
2019-03-17T06:39:05.723Z,59.20
2019-03-17T06:39:36.911Z,59.30
2019-03-17T06:40:08.085Z,59.30
2019-03-17T06:40:39.316Z,59.30
2019-03-17T06:41:10.499Z,59.30
2019-03-17T06:41:41.676Z,59.30
2019-03-17T06:42:12.876Z,59.30
2019-03-17T06:42:44.075Z,59.30